Time;durP1;ratioP1;P1;durP2;ratioP2;P2;SDS_P1;SDS_P2;PMS_P1;PMS_P2;Temp;Humidity;BMP_temperature;BMP_pressure;BME280_temperature;BME280_humidity;BME280_pressure;Samples;Min_cycle;Max_cycle;Signal;HPM_P1;HPM_P2
2021/12/01 00:01:29;;;;;;;1.73;1.63;;;2.90;99.90;;;;;;6264095;22;20395;-89
2021/12/01 00:04:17;;;;;;;1.92;1.80;;;2.90;99.90;;;;;;6287518;22;20413;-88
2021/12/01 00:07:12;;;;;;;1.80;1.50;;;3.00;99.90;;;;;;6268092;22;20034;-90
2021/12/01 00:09:59;;;;;;;1.48;1.33;;;2.90;99.90;;;;;;6269361;22;20352;-88
2021/12/01 00:12:50;;;;;;;1.42;1.33;;;2.90;99.90;;;;;;6292789;22;20027;-88
2021/12/01 00:15:48;;;;;;;2.30;1.45;;;2.90;99.90;;;;;;6287638;22;20120;-90
2021/12/01 00:18:43;;;;;;;1.60;1.50;;;2.90;99.90;;;;;;6310436;22;20027;-89
2021/12/01 00:21:39;;;;;;;1.30;1.20;;;2.90;99.90;;;;;;6265527;22;20019;-91
2021/12/01 00:24:27;;;;;;;1.50;1.40;;;2.90;99.90;;;;;;6282835;22;20037;-87
2021/12/01 00:27:14;;;;;;;1.95;1.40;;;2.90;99.90;;;;;;6285438;22;20033;-88
2021/12/01 00:30:09;;;;;;;1.15;1.15;;;2.90;99.90;;;;;;6288333;22;20129;-89
2021/12/01 00:33:03;;;;;;;1.42;1.30;;;2.90;99.90;;;;;;6287366;22;20035;-90
2021/12/01 00:35:55;;;;;;;1.83;1.48;;;2.90;99.90;;;;;;6290194;22;20027;-89
2021/12/01 00:38:45;;;;;;;2.15;1.30;;;3.00;99.90;;;;;;6290177;22;20067;-88
2021/12/01 00:41:33;;;;;;;1.60;1.50;;;3.00;99.90;;;;;;6286194;22;20098;-88
2021/12/01 00:44:21;;;;;;;1.52;1.42;;;3.00;99.90;;;;;;6261983;22;20033;-87
2021/12/01 00:47:12;;;;;;;2.13;1.70;;;3.00;99.90;;;;;;6306496;22;20029;-89
2021/12/01 00:50:02;;;;;;;;;;;3.00;99.90;;;;;;6283697;22;20027;-88
2021/12/01 00:52:51;;;;;;;1.90;1.80;;;3.00;99.90;;;;;;6285805;22;19914;-89
2021/12/01 00:55:43;;;;;;;3.75;1.85;;;3.00;99.90;;;;;;6309263;22;20101;-89
2021/12/01 00:58:31;;;;;;;2.70;2.00;;;3.00;99.90;;;;;;6285314;22;20058;-88
2021/12/01 01:01:24;;;;;;;1.55;1.45;;;3.00;99.90;;;;;;6286276;22;20172;-88
2021/12/01 01:04:32;;;;;;;2.85;2.15;;;3.10;99.90;;;;;;6305073;22;20077;-89
2021/12/01 01:07:25;;;;;;;2.80;1.70;;;3.10;99.90;;;;;;6286468;22;20141;-90
2021/12/01 01:10:28;;;;;;;2.40;1.70;;;3.20;99.90;;;;;;6286126;22;20475;-89
2021/12/01 01:16:41;;;;;;;3.22;1.92;;;3.20;99.90;;;;;;6290599;22;20031;-89
2021/12/01 01:19:29;;;;;;;2.38;2.15;;;3.20;99.90;;;;;;6268376;22;20023;-88
2021/12/01 01:22:23;;;;;;;3.58;2.30;;;3.20;99.90;;;;;;6288380;22;20192;-91
2021/12/01 01:25:11;;;;;;;1.90;1.80;;;3.20;99.90;;;;;;6286935;22;20104;-90
2021/12/01 01:28:03;;;;;;;4.13;2.25;;;3.20;99.90;;;;;;6264670;22;20028;-90
2021/12/01 01:31:06;;;;;;;2.50;2.30;;;3.20;99.90;;;;;;6264081;22;20030;-90
2021/12/01 01:33:58;;;;;;;2.63;2.22;;;3.20;99.90;;;;;;6306272;22;20068;-89
2021/12/01 01:36:46;;;;;;;2.58;2.35;;;3.20;99.90;;;;;;6285450;22;20019;-90
2021/12/01 01:39:35;;;;;;;3.50;2.25;;;3.20;99.90;;;;;;6262891;22;20019;-90
2021/12/01 01:42:36;;;;;;;2.40;2.20;;;3.20;99.90;;;;;;6268848;22;20075;-89
2021/12/01 01:45:40;;;;;;;;;;;;;;;;;;;;;
2021/12/01 01:48:52;;;;;;;2.47;2.28;;;3.20;99.90;;;;;;6309476;22;20034;-87
2021/12/01 01:51:46;;;;;;;2.65;2.42;;;3.20;99.90;;;;;;6310114;22;20038;-89
2021/12/01 01:54:38;;;;;;;2.65;2.30;;;3.30;99.90;;;;;;6286858;22;20037;-89
2021/12/01 01:57:27;;;;;;;3.00;2.70;;;3.20;99.90;;;;;;6307509;22;20067;-89
2021/12/01 02:00:16;;;;;;;2.28;2.00;;;3.30;99.90;;;;;;6299894;22;20053;-89
2021/12/01 02:03:26;;;;;;;2.95;2.30;;;3.30;99.90;;;;;;6306277;22;20011;-87
2021/12/01 02:06:22;;;;;;;2.47;2.28;;;3.20;99.90;;;;;;6293482;22;20022;-87
2021/12/01 02:09:12;;;;;;;2.38;2.17;;;3.20;99.90;;;;;;6307819;22;20011;-88
2021/12/01 02:12:04;;;;;;;2.22;2.03;;;3.30;99.90;;;;;;6329900;22;20046;-88
2021/12/01 02:14:51;;;;;;;2.42;2.15;;;3.30;99.90;;;;;;6285015;22;20025;-89
2021/12/01 02:17:49;;;;;;;3.03;2.08;;;3.30;99.90;;;;;;6325641;22;20047;-90
2021/12/01 02:21:00;;;;;;;1.60;1.50;;;3.30;99.90;;;;;;6281463;22;20092;-90
2021/12/01 02:24:01;;;;;;;4.00;1.90;;;3.40;99.90;;;;;;6301917;22;20030;-89
2021/12/01 02:26:51;;;;;;;2.85;1.65;;;3.40;99.90;;;;;;6283284;22;20057;-88
2021/12/01 02:29:39;;;;;;;2.90;2.03;;;3.50;99.90;;;;;;6264570;22;20023;-89
2021/12/01 02:32:38;;;;;;;2.03;1.50;;;3.50;99.90;;;;;;6309113;22;20053;-88
2021/12/01 02:35:30;;;;;;;1.67;1.58;;;3.40;99.90;;;;;;6297451;22;20027;-88
2021/12/01 02:38:21;;;;;;;1.60;1.50;;;3.50;99.90;;;;;;6285311;22;20027;-90
2021/12/01 02:41:11;;;;;;;1.70;1.60;;;3.50;99.90;;;;;;6286501;22;20034;-88
2021/12/01 02:44:12;;;;;;;2.05;1.75;;;3.40;99.90;;;;;;6307592;22;20019;-90
2021/12/01 02:47:01;;;;;;;1.73;1.60;;;3.40;99.90;;;;;;6309127;22;20377;-89
2021/12/01 02:49:53;;;;;;;2.85;1.90;;;3.40;99.90;;;;;;6267109;22;20035;-89
2021/12/01 02:52:52;;;;;;;1.90;1.80;;;3.50;99.90;;;;;;6286904;22;20039;-90
2021/12/01 02:56:01;;;;;;;1.75;1.60;;;3.50;99.90;;;;;;6245661;22;20035;-91
2021/12/01 02:59:06;;;;;;;1.95;1.85;;;3.50;99.90;;;;;;6306882;22;20042;-89
2021/12/01 03:02:04;;;;;;;2.33;1.80;;;3.50;99.90;;;;;;6286006;22;20023;-90
2021/12/01 03:04:56;;;;;;;2.08;1.88;;;3.50;99.90;;;;;;6285364;22;20019;-90
2021/12/01 03:07:44;;;;;;;1.98;1.65;;;3.50;99.90;;;;;;6284316;22;20122;-90
2021/12/01 03:10:33;;;;;;;2.50;1.40;;;3.50;99.90;;;;;;6288911;22;20027;-92
2021/12/01 03:13:24;;;;;;;2.28;1.77;;;3.50;99.90;;;;;;6235497;22;1228310;-89
2021/12/01 03:16:15;;;;;;;2.03;1.45;;;3.50;99.90;;;;;;6312574;22;20023;-91
2021/12/01 03:19:08;;;;;;;3.05;1.92;;;3.50;99.90;;;;;;6311361;22;20100;-91
2021/12/01 03:22:02;;;;;;;2.05;1.85;;;3.50;99.90;;;;;;6273969;22;20033;-89
2021/12/01 03:25:06;;;;;;;1.90;1.60;;;3.50;99.90;;;;;;6316196;22;20019;-91
2021/12/01 03:27:58;;;;;;;;;;;3.50;99.90;;;;;;6317903;22;20058;-89
2021/12/01 03:30:47;;;;;;;2.22;1.73;;;3.60;99.90;;;;;;6299488;22;20020;-87
2021/12/01 03:33:36;;;;;;;2.30;2.10;;;3.60;99.90;;;;;;6324760;22;20030;-87
2021/12/01 03:36:42;;;;;;;2.78;2.35;;;3.60;99.90;;;;;;6328723;22;20055;-90
2021/12/01 03:39:47;;;;;;;4.28;1.92;;;3.60;99.90;;;;;;6267657;22;20031;-90
2021/12/01 03:42:46;;;;;;;2.65;2.45;;;3.70;99.90;;;;;;6317691;22;20023;-89
2021/12/01 03:45:35;;;;;;;2.70;1.95;;;3.70;99.90;;;;;;6298043;22;20015;-87
2021/12/01 03:48:26;;;;;;;2.33;2.13;;;3.70;99.90;;;;;;6322448;22;20031;-88
2021/12/01 03:51:15;;;;;;;2.17;1.98;;;3.70;99.90;;;;;;6309709;22;20027;-88
2021/12/01 03:54:13;;;;;;;3.75;2.20;;;3.70;99.90;;;;;;6311673;22;20114;-90
2021/12/01 03:57:04;;;;;;;3.35;2.20;;;3.80;99.90;;;;;;6315150;22;20086;-90
2021/12/01 04:00:05;;;;;;;2.45;2.25;;;3.80;99.90;;;;;;6256402;22;20023;-90
2021/12/01 04:02:57;;;;;;;4.22;2.90;;;3.80;99.90;;;;;;6312177;22;20091;-92
2021/12/01 04:05:47;;;;;;;3.50;2.65;;;3.80;99.90;;;;;;6269526;22;20027;-90
2021/12/01 04:08:35;;;;;;;3.67;2.28;;;3.90;99.90;;;;;;6294202;22;20020;-92
2021/12/01 04:11:34;;;;;;;3.05;2.30;;;3.90;99.90;;;;;;6312535;22;20022;-90
2021/12/01 04:14:35;;;;;;;2.00;1.90;;;3.90;99.90;;;;;;6272115;22;20063;-90
2021/12/01 04:17:22;;;;;;;2.33;2.13;;;3.90;99.90;;;;;;6290903;22;20055;-91
2021/12/01 04:20:15;;;;;;;3.22;1.92;;;4.00;99.90;;;;;;6291579;22;20028;-92
2021/12/01 04:23:04;;;;;;;2.17;1.92;;;4.00;99.90;;;;;;6288762;22;20019;-89
2021/12/01 04:25:56;;;;;;;;;;;4.00;99.90;;;;;;6290266;22;20102;-90
2021/12/01 04:28:52;;;;;;;5.50;1.63;;;4.00;99.90;;;;;;6289899;22;19930;-90
2021/12/01 04:31:43;;;;;;;2.65;1.70;;;4.10;99.90;;;;;;6274832;22;20020;-89
2021/12/01 04:34:38;;;;;;;4.72;1.73;;;4.10;99.90;;;;;;6274163;22;20027;-89
2021/12/01 04:37:30;;;;;;;1.58;1.48;;;4.20;99.90;;;;;;6317774;22;20290;-88
2021/12/01 04:40:20;;;;;;;1.85;1.50;;;4.20;99.90;;;;;;6272787;22;20096;-90
2021/12/01 04:43:13;;;;;;;2.07;1.57;;;4.20;99.90;;;;;;6294696;22;20019;-92
2021/12/01 04:46:02;;;;;;;3.03;1.30;;;4.20;99.90;;;;;;6299370;22;20057;-90
2021/12/01 04:48:49;;;;;;;1.45;1.30;;;4.20;99.90;;;;;;6276503;22;20034;-89
2021/12/01 04:51:40;;;;;;;1.65;1.38;;;4.20;99.90;;;;;;6277309;22;20023;-90
2021/12/01 04:54:46;;;;;;;1.48;1.38;;;4.30;99.90;;;;;;6303167;22;20104;-91
2021/12/01 04:57:41;;;;;;;1.77;1.48;;;4.30;99.90;;;;;;6303173;22;20045;-90
2021/12/01 05:00:36;;;;;;;4.28;1.30;;;4.30;99.90;;;;;;6305209;22;20027;-90
2021/12/01 05:03:30;;;;;;;1.85;1.33;;;4.30;99.90;;;;;;6280654;22;20093;-89
2021/12/01 05:06:28;;;;;;;;;;;;;;;;;;;;;
2021/12/01 05:09:17;;;;;;;1.48;1.38;;;4.40;99.90;;;;;;6325238;22;20030;-91
2021/12/01 05:12:07;;;;;;;2.15;1.15;;;4.40;99.90;;;;;;6303568;22;20058;-89
2021/12/01 05:15:16;;;;;;;1.10;1.10;;;4.40;99.90;;;;;;6263919;22;20027;-88
2021/12/01 05:18:25;;;;;;;3.65;1.30;;;4.50;99.90;;;;;;6326467;22;20030;-90
2021/12/01 05:21:18;;;;;;;1.65;1.15;;;4.60;99.90;;;;;;6328166;22;20047;-88
2021/12/01 05:24:07;;;;;;;;;;;4.70;99.90;;;;;;6304498;22;20011;-89
2021/12/01 05:26:55;;;;;;;3.75;1.33;;;4.70;99.90;;;;;;6303476;22;19929;-88
2021/12/01 05:29:51;;;;;;;1.15;1.08;;;4.70;99.90;;;;;;6286133;22;20401;-90
2021/12/01 05:32:41;;;;;;;3.70;1.25;;;4.80;99.90;;;;;;6281268;22;20049;-89
2021/12/01 05:36:09;;;;;;;1.58;1.10;;;4.70;99.90;;;;;;6326235;22;20057;-91
2021/12/01 05:39:03;;;;;;;1.20;1.10;;;4.70;99.90;;;;;;6157063;22;20053;-88
2021/12/01 05:42:12;;;;;;;2.10;1.20;;;4.80;99.90;;;;;;6284120;22;20038;-89
2021/12/01 05:45:05;;;;;;;1.63;1.10;;;4.80;99.90;;;;;;6306038;22;20058;-90
2021/12/01 05:48:20;;;;;;;2.10;0.95;;;4.80;99.90;;;;;;6312701;22;20038;-90
2021/12/01 05:52:12;;;;;;;;;;;;;;;;;;;;;
2021/12/01 05:55:13;;;;;;;1.65;1.00;;;4.90;99.90;;;;;;6306029;22;20027;-91
2021/12/01 05:58:01;;;;;;;1.23;1.08;;;4.90;99.90;;;;;;6307325;22;20315;-89
2021/12/01 06:01:09;;;;;;;2.60;1.15;;;4.80;99.90;;;;;;6283308;22;20092;-91
2021/12/01 06:04:01;;;;;;;3.03;1.65;;;4.90;99.90;;;;;;6307907;22;20079;-91
2021/12/01 06:07:35;;;;;;;2.90;1.42;;;4.90;99.90;;;;;;6288954;22;20030;-90
2021/12/01 06:19:11;;;;;;;1.40;1.30;;;4.90;99.90;;;;;;6188160;23;20013;-89
2021/12/01 06:22:01;;;;;;;1.20;1.00;;;4.90;99.90;;;;;;6232230;22;20034;-90
2021/12/01 06:24:53;;;;;;;3.50;1.83;;;4.90;99.90;;;;;;6260490;22;20027;-87
2021/12/01 06:27:42;;;;;;;2.10;1.48;;;4.90;99.90;;;;;;6309186;22;20027;-89
2021/12/01 06:30:35;;;;;;;2.67;1.10;;;4.90;99.90;;;;;;6300997;22;20023;-88
2021/12/01 06:33:22;;;;;;;2.35;1.33;;;4.90;99.90;;;;;;6284351;22;20353;-88
2021/12/01 06:36:11;;;;;;;2.28;1.27;;;5.00;99.90;;;;;;6264900;22;20098;-88
2021/12/01 06:38:59;;;;;;;1.10;1.10;;;5.00;99.90;;;;;;6287369;22;20023;-88
2021/12/01 06:41:49;;;;;;;1.50;1.25;;;5.00;99.90;;;;;;6285411;22;20038;-88
2021/12/01 06:44:36;;;;;;;2.45;0.98;;;5.00;99.90;;;;;;6285045;22;20042;-86
2021/12/01 06:47:35;;;;;;;1.80;0.80;;;5.10;99.90;;;;;;6283837;22;20062;-89
2021/12/01 06:55:27;;;;;;;1.08;0.80;;;5.20;99.90;;;;;;6154187;23;20574;-88
2021/12/01 06:59:08;;;;;;;;;;;;;;;;;;;;;
2021/12/01 07:02:08;;;;;;;;;;;;;;;;;;;;;
2021/12/01 07:05:14;;;;;;;0.80;0.80;;;5.30;99.90;;;;;;6159375;23;20028;-90
2021/12/01 07:12:46;;;;;;;;;;;;;;;;;;;;;
2021/12/01 07:16:25;;;;;;;;;;;;;;;;;;;;;
2021/12/01 07:20:24;;;;;;;1.65;0.90;;;5.50;99.90;;;;;;5848288;24;20041;-88
2021/12/01 07:24:26;;;;;;;;;;;;;;;;;;;;;
2021/12/01 07:30:45;;;;;;;0.75;0.75;;;5.50;99.90;;;;;;5922736;24;20012;-90
2021/12/01 07:33:40;;;;;;;1.38;0.93;;;5.50;99.90;;;;;;6007203;23;20092;-87
2021/12/01 07:36:35;;;;;;;1.05;0.80;;;5.60;99.90;;;;;;6015564;23;20067;-88
2021/12/01 07:39:27;;;;;;;0.60;0.60;;;5.50;99.90;;;;;;6040285;23;20039;-90
2021/12/01 07:43:28;;;;;;;;;;;;;;;;;;;;;
2021/12/01 07:46:00;;;;;;;1.27;0.70;;;5.70;99.90;;;;;;6069683;23;20035;-88
2021/12/01 07:48:48;;;;;;;0.98;0.70;;;5.70;99.90;;;;;;6068503;23;20120;-85
2021/12/01 07:52:05;;;;;;;1.23;0.90;;;5.70;99.90;;;;;;6098874;23;20396;-90
2021/12/01 07:55:19;;;;;;;0.90;0.80;;;5.70;99.90;;;;;;6200524;23;20416;-89
2021/12/01 08:03:01;;;;;;;;;;;;;;;;;;;;;
2021/12/01 08:06:48;;;;;;;2.67;0.73;;;5.90;99.90;;;;;;6159161;23;20025;-87
2021/12/01 08:28:05;;;;;;;;;;;;;;;;;;;;;
2021/12/01 08:32:11;;;;;;;2.05;1.30;;;6.10;99.90;;;;;;5990213;23;20012;-92
2021/12/01 08:44:05;;;;;;;0.80;0.80;;;6.80;99.90;;;;;;5798089;24;20031;-90
2021/12/01 08:47:24;;;;;;;;;;;;;;;;;;;;;
2021/12/01 08:50:14;;;;;;;2.17;0.70;;;7.20;99.90;;;;;;5828238;24;20022;-87
2021/12/01 08:54:09;;;;;;;;;;;;;;;;;;;;;
2021/12/01 09:08:09;;;;;;;0.70;0.70;;;8.20;99.90;;;;;;6268896;22;20023;-86
2021/12/01 09:11:14;;;;;;;0.82;0.70;;;8.20;99.90;;;;;;6292813;22;20097;-92
2021/12/01 09:23:04;;;;;;;1.52;0.60;;;9.50;99.90;;;;;;6047383;23;20051;-89
2021/12/01 09:34:44;;;;;;;;;;;8.80;99.90;;;;;;5987297;23;20056;-90
2021/12/01 09:42:05;;;;;;;0.50;0.50;;;7.90;99.90;;;;;;5924215;24;20045;-90
2021/12/01 09:54:20;;;;;;;0.88;0.88;;;7.70;99.90;;;;;;5986417;23;20075;-87
2021/12/01 09:57:40;;;;;;;0.68;0.50;;;7.70;99.90;;;;;;6140999;23;20064;-88
2021/12/01 10:01:06;;;;;;;1.60;0.80;;;7.70;99.90;;;;;;6082724;23;20033;-88
2021/12/01 10:23:34;;;;;;;0.85;0.85;;;8.10;99.90;;;;;;6171169;23;20025;-87
2021/12/01 10:26:33;;;;;;;0.70;0.70;;;7.90;99.90;;;;;;6194624;22;20028;-87
2021/12/01 10:29:50;;;;;;;2.08;0.90;;;7.70;99.90;;;;;;6270344;22;20023;-89
2021/12/01 10:32:38;;;;;;;2.55;1.30;;;7.60;99.90;;;;;;6262000;22;20434;-89
2021/12/01 10:35:43;;;;;;;3.47;1.15;;;7.60;99.90;;;;;;6242671;22;20024;-89
2021/12/01 10:38:39;;;;;;;2.15;1.30;;;7.60;99.90;;;;;;6278064;22;20020;-88
2021/12/01 10:41:36;;;;;;;1.13;0.63;;;7.60;99.90;;;;;;6257367;22;20032;-88
2021/12/01 10:45:03;;;;;;;3.97;1.50;;;7.60;99.90;;;;;;6124412;23;20030;-87
2021/12/01 10:47:58;;;;;;;1.23;0.90;;;7.60;99.90;;;;;;6125028;23;20021;-89
2021/12/01 10:51:08;;;;;;;1.98;0.93;;;7.90;99.90;;;;;;6122718;23;20057;-90
2021/12/01 10:53:59;;;;;;;1.92;0.88;;;8.20;99.90;;;;;;6126550;23;20026;-90
2021/12/01 10:57:16;;;;;;;0.70;0.70;;;8.30;99.90;;;;;;6124068;23;20294;-88
2021/12/01 11:00:44;;;;;;;0.60;0.60;;;8.30;99.90;;;;;;6126010;23;20041;-88
2021/12/01 11:03:35;;;;;;;2.45;0.52;;;8.20;99.90;;;;;;6272444;22;20070;-90
2021/12/01 11:06:44;;;;;;;0.60;0.60;;;8.20;99.90;;;;;;6137061;23;20021;-90
2021/12/01 11:09:37;;;;;;;1.92;1.20;;;8.10;99.90;;;;;;6163582;23;20110;-89
2021/12/01 11:12:33;;;;;;;0.73;0.70;;;8.00;99.90;;;;;;6144969;23;20476;-90
2021/12/01 11:16:01;;;;;;;1.17;0.68;;;7.90;99.90;;;;;;6151924;23;20369;-88
2021/12/01 11:19:11;;;;;;;0.85;0.80;;;7.80;99.90;;;;;;6150810;23;20021;-89
2021/12/01 11:22:45;;;;;;;2.55;0.90;;;7.70;99.90;;;;;;6164245;23;20025;-87
2021/12/01 11:25:43;;;;;;;1.45;1.35;;;7.60;99.90;;;;;;6102728;23;20211;-89
2021/12/01 11:28:43;;;;;;;1.67;1.25;;;7.60;99.90;;;;;;6101865;23;20097;-86
2021/12/01 11:31:48;;;;;;;1.55;1.45;;;7.60;99.90;;;;;;6153323;23;20029;-90
2021/12/01 11:34:53;;;;;;;1.75;0.90;;;7.50;99.90;;;;;;6185034;23;20029;-90
2021/12/01 11:42:21;;;;;;;;;;;;;;;;;;;;;
2021/12/01 11:49:50;;;;;;;3.45;1.05;;;7.00;99.90;;;;;;5928139;24;20033;-93
2021/12/01 11:53:39;;;;;;;0.82;0.82;;;6.90;99.90;;;;;;5820161;24;20141;-88
2021/12/01 11:56:55;;;;;;;1.13;1.10;;;6.80;99.90;;;;;;5948451;24;20365;-87
2021/12/01 12:46:11;;;;;;;;;;;;;;;;;;;;;
2021/12/01 12:50:01;;;;;;;;;;;;;;;;;;;;;
2021/12/01 12:53:16;;;;;;;;;;;;;;;;;;;;;
2021/12/01 12:56:38;;;;;;;3.00;2.42;;;6.70;99.90;;;;;;5051159;28;20499;-89
2021/12/01 13:00:28;;;;;;;8.73;2.33;;;6.70;99.90;;;;;;5030810;28;20045;-90
2021/12/01 13:03:54;;;;;;;2.33;2.13;;;6.60;99.90;;;;;;5037812;28;20228;-89
2021/12/01 13:06:51;;;;;;;3.45;2.20;;;6.60;99.90;;;;;;5057572;28;20045;-89
2021/12/01 13:09:38;;;;;;;1.90;1.70;;;6.60;99.90;;;;;;5044076;28;20067;-87
2021/12/01 13:12:29;;;;;;;7.47;2.08;;;6.60;99.90;;;;;;5040563;28;20187;-90
2021/12/01 13:15:43;;;;;;;2.08;1.80;;;6.60;99.90;;;;;;5075098;27;20140;-90
2021/12/01 13:18:47;;;;;;;;;;;;;;;;;;;;;
2021/12/01 13:21:48;;;;;;;5.95;2.35;;;6.60;99.90;;;;;;5146235;27;20055;-86
2021/12/01 13:24:42;;;;;;;6.30;1.85;;;6.60;99.90;;;;;;5103826;28;20099;-87
2021/12/01 13:31:49;;;;;;;2.40;2.20;;;6.60;99.90;;;;;;5091255;28;20054;-87
2021/12/01 13:34:36;;;;;;;2.00;1.80;;;6.60;99.90;;;;;;5094376;28;20148;-89
2021/12/01 13:38:04;;;;;;;2.58;2.17;;;6.60;99.90;;;;;;5104662;27;20043;-86
2021/12/01 13:44:47;;;;;;;2.72;1.60;;;6.60;99.90;;;;;;5092790;28;20059;-88
2021/12/01 13:47:44;;;;;;;3.28;1.83;;;6.70;99.90;;;;;;5095136;28;20035;-86
2021/12/01 13:51:06;;;;;;;;;;;6.70;99.90;;;;;;5059148;28;20363;-93
2021/12/01 13:54:06;;;;;;;;;;;;;;;;;;;;;
2021/12/01 13:57:51;;;;;;;;;;;;;;;;;;;;;
2021/12/01 14:01:02;;;;;;;1.80;1.50;;;6.70;99.90;;;;;;5009415;28;20117;-89
2021/12/01 14:04:42;;;;;;;8.25;1.75;;;6.80;99.90;;;;;;4923690;29;20424;-91
2021/12/01 14:11:42;;;;;;;1.50;1.27;;;6.80;99.90;;;;;;4926754;29;20027;-91
2021/12/01 14:14:30;;;;;;;2.35;1.30;;;6.70;99.90;;;;;;4917965;28;20055;-88
2021/12/01 14:17:29;;;;;;;1.27;1.20;;;6.70;99.90;;;;;;4923945;29;20351;-89
2021/12/01 14:32:13;;;;;;;;;;;;;;;;;;;;;
2021/12/01 14:36:23;;;;;;;4.40;1.00;;;6.70;99.90;;;;;;4950125;28;20090;-91
2021/12/01 14:51:51;;;;;;;;;;;;;;;;;;;;;
2021/12/01 14:55:23;;;;;;;;;;;;;;;;;;;;;
2021/12/01 15:06:48;;;;;;;;;;;;;;;;;;;;;
2021/12/01 15:13:47;;;;;;;5.78;2.83;;;6.60;99.90;;;;;;4969737;28;20030;-87
2021/12/01 15:16:59;;;;;;;;;;;;;;;;;;;;;
2021/12/01 15:20:09;;;;;;;2.53;1.60;;;6.60;99.90;;;;;;5086735;28;20048;-88
2021/12/01 15:22:59;;;;;;;1.90;1.55;;;6.60;99.90;;;;;;5094885;27;20089;-89
2021/12/01 15:25:53;;;;;;;2.53;1.50;;;6.60;99.90;;;;;;5113847;27;20044;-90
2021/12/01 15:28:52;;;;;;;2.63;1.75;;;6.70;99.90;;;;;;5088085;28;20044;-90
2021/12/01 15:31:57;;;;;;;1.50;1.40;;;6.70;99.90;;;;;;5080204;28;20044;-90
2021/12/01 15:34:48;;;;;;;3.00;1.90;;;6.70;99.90;;;;;;5080807;28;20040;-89
2021/12/01 15:38:00;;;;;;;1.77;1.35;;;6.70;99.90;;;;;;5098897;27;20066;-88
2021/12/01 15:40:51;;;;;;;1.90;1.30;;;6.70;99.90;;;;;;5105045;28;20047;-88
2021/12/01 15:43:42;;;;;;;3.00;1.20;;;6.70;99.90;;;;;;5089737;28;20036;-89
2021/12/01 15:46:59;;;;;;;1.58;1.00;;;6.70;99.90;;;;;;5088236;28;20040;-89
2021/12/01 15:50:04;;;;;;;1.27;1.10;;;6.70;99.90;;;;;;5105202;27;20135;-87
2021/12/01 15:52:54;;;;;;;3.97;1.92;;;6.70;99.90;;;;;;5087147;28;20059;-88
2021/12/01 15:55:42;;;;;;;1.83;1.40;;;6.70;99.90;;;;;;5084257;28;20044;-87
2021/12/01 15:58:32;;;;;;;3.22;1.40;;;6.60;99.90;;;;;;5087574;28;20093;-89
2021/12/01 16:01:26;;;;;;;1.50;1.40;;;6.60;99.90;;;;;;5095983;28;20051;-90
2021/12/01 16:04:19;;;;;;;1.70;1.42;;;6.60;99.90;;;;;;5078975;28;20036;-89
2021/12/01 16:07:09;;;;;;;1.70;1.58;;;6.60;99.90;;;;;;5081795;28;20044;-89
2021/12/01 16:10:07;;;;;;;4.90;1.58;;;6.60;99.90;;;;;;5102485;28;20446;-89
2021/12/01 16:12:56;;;;;;;2.80;2.40;;;6.50;99.90;;;;;;5105881;28;20043;-89
2021/12/01 16:15:44;;;;;;;1.42;1.25;;;6.50;99.90;;;;;;5088470;28;20048;-88
2021/12/01 16:18:33;;;;;;;1.40;1.30;;;6.50;99.90;;;;;;5068364;28;20032;-88
2021/12/01 16:21:22;;;;;;;1.60;1.48;;;6.50;99.90;;;;;;5094901;28;20117;-88
2021/12/01 16:24:15;;;;;;;3.30;1.88;;;6.40;99.90;;;;;;5074349;28;20180;-89
2021/12/01 16:27:04;;;;;;;2.60;1.95;;;6.40;99.90;;;;;;5087491;28;20039;-89
2021/12/01 16:29:53;;;;;;;3.45;2.50;;;6.40;99.90;;;;;;5084541;28;20032;-89
2021/12/01 16:32:49;;;;;;;5.20;2.60;;;6.40;99.90;;;;;;5087074;28;20371;-89
2021/12/01 16:35:40;;;;;;;4.00;2.65;;;6.30;99.90;;;;;;5085533;28;20052;-88
2021/12/01 16:38:30;;;;;;;3.38;2.00;;;6.40;99.90;;;;;;5091401;28;20048;-88
2021/12/01 16:41:24;;;;;;;3.25;1.88;;;6.40;99.90;;;;;;5083345;28;20055;-89
2021/12/01 16:44:13;;;;;;;5.07;2.50;;;6.50;99.90;;;;;;5092373;28;20086;-91
2021/12/01 16:47:08;;;;;;;2.22;1.70;;;6.40;99.90;;;;;;5082045;28;20108;-88
2021/12/01 16:49:58;;;;;;;4.90;2.03;;;6.50;99.90;;;;;;5081799;28;20051;-88
2021/12/01 16:52:50;;;;;;;4.25;2.15;;;6.60;99.90;;;;;;5092814;28;20051;-89
2021/12/01 16:55:42;;;;;;;2.60;1.48;;;6.60;99.90;;;;;;5104927;28;20047;-87
2021/12/01 16:58:32;;;;;;;1.95;1.75;;;6.50;99.90;;;;;;5076107;28;20563;-88
2021/12/01 17:01:24;;;;;;;2.53;1.90;;;6.50;99.90;;;;;;5093846;28;20040;-88
2021/12/01 17:04:13;;;;;;;2.38;2.10;;;6.40;99.90;;;;;;5106567;27;20130;-87
2021/12/01 17:07:10;;;;;;;1.90;1.52;;;6.40;99.90;;;;;;5093239;28;20074;-87
2021/12/01 17:09:58;;;;;;;3.88;1.75;;;6.40;99.90;;;;;;5108547;28;20103;-88
2021/12/01 17:12:51;;;;;;;3.63;2.42;;;6.40;99.90;;;;;;5096606;28;20162;-88
2021/12/01 17:15:44;;;;;;;1.45;1.33;;;6.40;99.90;;;;;;5095988;28;20043;-89
2021/12/01 17:18:34;;;;;;;1.73;1.55;;;6.40;99.90;;;;;;5096061;28;20048;-88
2021/12/01 17:21:25;;;;;;;2.78;1.80;;;6.40;99.90;;;;;;5093861;28;20115;-88
2021/12/01 17:24:14;;;;;;;3.45;1.48;;;6.30;99.90;;;;;;5108637;28;20054;-89
2021/12/01 17:27:23;;;;;;;3.15;2.22;;;6.30;99.90;;;;;;5096830;28;20035;-89
2021/12/01 17:30:25;;;;;;;3.92;2.00;;;6.20;99.90;;;;;;5087338;28;20351;-88
2021/12/01 17:33:13;;;;;;;2.55;1.75;;;6.20;99.90;;;;;;5094459;28;20195;-93
2021/12/01 17:36:34;;;;;;;5.38;2.83;;;6.20;99.90;;;;;;5091338;28;20186;-92
2021/12/01 17:39:50;;;;;;;2.10;1.88;;;6.10;99.90;;;;;;5100816;28;20093;-91
2021/12/01 17:42:39;;;;;;;2.83;1.30;;;6.20;99.90;;;;;;5091845;28;20051;-91
2021/12/01 17:45:28;;;;;;;4.90;3.33;;;6.20;99.90;;;;;;5100317;28;20040;-91
2021/12/01 17:48:15;;;;;;;4.03;3.03;;;6.20;99.90;;;;;;5099452;28;20050;-92
2021/12/01 17:51:09;;;;;;;3.47;2.38;;;6.10;99.90;;;;;;5100183;28;20051;-93
2021/12/01 17:54:14;;;;;;;2.45;1.85;;;6.10;99.90;;;;;;5084131;27;20126;-92
2021/12/01 17:57:31;;;;;;;5.93;2.28;;;6.10;99.90;;;;;;5093791;28;20039;-91
2021/12/01 18:00:32;;;;;;;2.13;1.90;;;6.10;99.90;;;;;;5086832;28;20543;-92
2021/12/01 18:03:20;;;;;;;1.77;1.52;;;6.10;99.90;;;;;;5080899;28;20083;-89
2021/12/01 18:06:11;;;;;;;3.78;1.95;;;6.00;99.90;;;;;;5099108;28;20075;-90
2021/12/01 18:09:07;;;;;;;2.85;2.10;;;5.90;99.90;;;;;;5095820;28;20066;-90
2021/12/01 18:11:57;;;;;;;3.05;1.90;;;5.90;99.90;;;;;;5097835;28;20055;-90
2021/12/01 18:14:46;;;;;;;2.33;1.90;;;5.90;99.90;;;;;;5086514;28;20040;-91
2021/12/01 18:17:37;;;;;;;1.55;1.20;;;5.80;99.90;;;;;;5095699;28;20050;-91
2021/12/01 18:20:32;;;;;;;2.05;1.70;;;5.80;99.90;;;;;;5089509;28;20040;-92
2021/12/01 18:23:22;;;;;;;5.72;3.00;;;5.80;99.90;;;;;;5077282;28;20047;-93
2021/12/01 18:26:11;;;;;;;2.20;2.00;;;5.80;99.90;;;;;;5089438;28;20048;-93
2021/12/01 18:29:10;;;;;;;1.40;1.30;;;5.80;99.90;;;;;;5087801;28;20039;-93
2021/12/01 18:32:17;;;;;;;;;;;;;;;;;;;;;
2021/12/01 18:35:21;;;;;;;3.20;2.70;;;5.80;99.90;;;;;;5104047;28;20066;-89
2021/12/01 18:38:09;;;;;;;3.50;2.65;;;5.80;99.90;;;;;;5093784;28;20095;-89
2021/12/01 18:40:56;;;;;;;5.57;4.10;;;5.80;99.90;;;;;;5064247;28;20135;-89
2021/12/01 18:43:43;;;;;;;3.58;2.17;;;5.70;99.90;;;;;;5099738;28;20087;-91
2021/12/01 18:46:33;;;;;;;10.85;5.97;;;5.60;99.90;;;;;;5068265;28;20052;-93
2021/12/01 18:49:21;;;;;;;9.25;4.95;;;5.60;99.90;;;;;;5084680;28;20052;-92
2021/12/01 18:52:10;;;;;;;10.80;5.72;;;5.50;99.90;;;;;;5086982;28;20043;-91
2021/12/01 18:54:57;;;;;;;2.00;1.80;;;5.50;99.90;;;;;;5081356;28;20051;-91
2021/12/01 18:58:05;;;;;;;5.00;3.70;;;5.50;99.90;;;;;;5081590;28;20113;-94
2021/12/01 19:00:52;;;;;;;3.35;2.30;;;5.50;99.90;;;;;;5075597;28;20387;-90
2021/12/01 19:03:42;;;;;;;5.68;2.25;;;5.50;99.90;;;;;;5107471;28;20039;-91
2021/12/01 19:06:30;;;;;;;2.08;1.58;;;5.50;99.90;;;;;;5098953;28;20048;-93
2021/12/01 19:09:22;;;;;;;4.18;2.50;;;5.40;99.90;;;;;;5099695;28;20044;-89
2021/12/01 19:12:11;;;;;;;4.57;3.10;;;5.40;99.90;;;;;;5085434;28;20442;-90
2021/12/01 19:14:58;;;;;;;5.50;3.30;;;5.40;99.90;;;;;;5085733;28;20055;-90
2021/12/01 19:17:46;;;;;;;3.72;2.92;;;5.40;99.90;;;;;;5082962;28;20036;-90
2021/12/01 19:20:40;;;;;;;6.70;4.38;;;5.40;99.90;;;;;;5075276;28;20044;-90
2021/12/01 19:23:32;;;;;;;6.95;3.70;;;5.20;99.90;;;;;;5099356;28;20472;-91
2021/12/01 19:26:20;;;;;;;4.47;2.70;;;5.20;99.90;;;;;;5078089;28;20127;-90
2021/12/01 19:29:10;;;;;;;3.17;2.60;;;5.10;99.90;;;;;;5079885;28;20048;-89
2021/12/01 19:31:57;;;;;;;2.72;1.75;;;5.10;99.90;;;;;;5102875;28;20052;-90
2021/12/01 19:34:45;;;;;;;1.88;1.70;;;5.10;99.90;;;;;;5082038;28;20453;-89
2021/12/01 19:37:34;;;;;;;3.25;2.40;;;5.20;99.90;;;;;;5093339;28;20078;-90
2021/12/01 19:40:23;;;;;;;2.33;1.98;;;5.20;99.90;;;;;;5078384;28;20036;-90
2021/12/01 19:43:10;;;;;;;2.40;2.20;;;5.20;99.90;;;;;;5093771;28;20047;-89
2021/12/01 19:46:01;;;;;;;8.05;3.60;;;5.20;99.90;;;;;;5098310;28;20063;-88
2021/12/01 19:48:50;;;;;;;10.85;5.28;;;5.10;99.90;;;;;;5078430;28;20059;-89
2021/12/01 19:51:38;;;;;;;8.60;5.13;;;5.10;99.90;;;;;;5100097;28;20040;-87
2021/12/01 19:54:26;;;;;;;5.43;3.03;;;5.20;99.90;;;;;;5091839;28;20054;-89
2021/12/01 19:57:15;;;;;;;3.83;2.40;;;5.30;99.90;;;;;;5076905;28;20048;-90
2021/12/01 20:00:13;;;;;;;9.93;6.07;;;5.20;99.90;;;;;;5080814;28;20420;-89
2021/12/01 20:03:03;;;;;;;3.17;2.53;;;5.20;99.90;;;;;;5101102;28;20052;-88